createdAt,value
2018-07-27T00:00:22.096Z,61.72
2018-07-27T00:01:22.029Z,62.37
2018-07-27T00:03:15.037Z,61.69
2018-07-27T00:04:14.956Z,61.79
2018-07-27T00:06:07.726Z,63.05
2018-07-27T00:07:07.658Z,61.89
2018-07-27T00:09:00.436Z,63.43
2018-07-27T00:10:00.364Z,62.95
2018-07-27T00:11:53.137Z,63.73
2018-07-27T00:12:53.054Z,64.31
2018-07-27T00:14:45.822Z,66.50
2018-07-27T00:15:45.752Z,64.47
2018-07-27T00:17:38.538Z,65.05
2018-07-27T00:18:38.474Z,66.50
2018-07-27T00:20:31.465Z,68.33
2018-07-27T00:21:31.384Z,68.68
2018-07-27T00:23:24.414Z,68.68
2018-07-27T00:24:24.326Z,68.59
2018-07-27T00:26:17.095Z,68.68
2018-07-27T00:27:17.017Z,68.72
2018-07-27T00:29:09.813Z,68.20
2018-07-27T00:30:09.739Z,68.10
2018-07-27T00:32:02.581Z,66.36
2018-07-27T00:33:02.502Z,66.27
2018-07-27T00:34:55.261Z,66.66
2018-07-27T00:35:55.189Z,65.98
2018-07-27T00:37:48.221Z,66.08
2018-07-27T00:38:48.126Z,64.63
2018-07-27T00:40:40.907Z,65.11
2018-07-27T00:41:40.818Z,64.92
2018-07-27T00:43:33.835Z,64.14
2018-07-27T00:44:33.755Z,63.40
2018-07-27T00:46:26.567Z,64.05
2018-07-27T00:47:26.492Z,63.69
2018-07-27T00:49:19.514Z,63.79
2018-07-27T00:50:19.431Z,62.92
2018-07-27T00:52:12.220Z,61.66
2018-07-27T00:53:12.132Z,62.15
2018-07-27T00:55:04.937Z,61.37
2018-07-27T00:56:04.829Z,61.76
2018-07-27T00:57:57.908Z,61.08
2018-07-27T00:58:57.823Z,61.27
2018-07-27T01:00:50.591Z,61.08
2018-07-27T01:01:50.526Z,61.18
2018-07-27T01:03:43.286Z,61.27
2018-07-27T01:04:43.218Z,61.18
2018-07-27T01:06:35.962Z,61.66
2018-07-27T01:07:35.916Z,61.34
2018-07-27T01:09:28.905Z,62.05
2018-07-27T01:10:28.822Z,61.25
2018-07-27T01:12:21.845Z,61.83
2018-07-27T01:13:21.779Z,62.50
2018-07-27T01:15:14.540Z,62.21
2018-07-27T01:16:14.459Z,62.60
2018-07-27T01:18:07.469Z,63.18
2018-07-27T01:19:07.380Z,62.89
2018-07-27T01:21:00.143Z,63.28
2018-07-27T01:22:00.070Z,62.98
2018-07-27T01:23:53.131Z,63.05
2018-07-27T01:24:53.035Z,61.89
2018-07-27T01:26:45.790Z,62.40
2018-07-27T01:27:45.748Z,63.05
2018-07-27T01:29:38.492Z,62.60
2018-07-27T01:30:38.412Z,61.80
2018-07-27T01:32:31.198Z,62.18
2018-07-27T01:33:31.104Z,62.28
2018-07-27T01:35:23.881Z,61.92
2018-07-27T01:36:23.806Z,63.15
2018-07-27T01:38:16.828Z,62.18
2018-07-27T01:39:16.742Z,62.66
2018-07-27T01:41:09.512Z,61.70
2018-07-27T01:42:09.436Z,61.99
2018-07-27T01:44:02.444Z,62.57
2018-07-27T01:45:02.366Z,62.76
2018-07-27T01:46:55.256Z,63.05
2018-07-27T01:47:55.060Z,62.86
2018-07-27T01:49:47.833Z,62.66
2018-07-27T01:50:47.747Z,63.43
2018-07-27T01:52:40.530Z,63.34
2018-07-27T01:53:40.448Z,63.60
2018-07-27T01:55:33.230Z,63.24
2018-07-27T01:56:33.137Z,64.21
2018-07-27T01:58:26.157Z,64.11
2018-07-27T01:59:26.072Z,64.59
2018-07-27T02:01:18.839Z,64.79
2018-07-27T02:02:18.765Z,64.31
2018-07-27T02:04:11.783Z,64.11
2018-07-27T02:05:11.692Z,63.89
2018-07-27T02:07:04.454Z,63.40
2018-07-27T02:08:04.382Z,63.34
2018-07-27T02:09:57.400Z,63.34
2018-07-27T02:10:57.325Z,63.21
2018-07-27T02:12:50.614Z,63.50
2018-07-27T02:13:50.538Z,63.70
2018-07-27T02:15:43.326Z,64.47
2018-07-27T02:16:43.236Z,63.98
2018-07-27T02:18:36.027Z,64.66
2018-07-27T02:19:35.934Z,64.18
2018-07-27T02:21:28.947Z,64.76
2018-07-27T02:22:28.900Z,64.63
2018-07-27T02:24:21.648Z,64.37
2018-07-27T02:25:21.561Z,64.66
2018-07-27T02:27:14.332Z,65.05
2018-07-27T02:28:14.248Z,64.63
2018-07-27T02:30:07.038Z,65.01
2018-07-27T02:31:06.960Z,64.63
2018-07-27T02:32:59.956Z,64.15
2018-07-27T02:33:59.889Z,65.01
2018-07-27T02:35:52.658Z,64.92
2018-07-27T02:36:52.567Z,64.63
2018-07-27T02:38:45.347Z,64.43
2018-07-27T02:39:45.255Z,64.72
2018-07-27T02:42:56.797Z,64.15
2018-07-27T02:43:56.704Z,64.82
2018-07-27T02:45:49.484Z,64.92
2018-07-27T02:46:49.408Z,65.30
2018-07-27T02:48:42.183Z,64.72
2018-07-27T02:49:42.089Z,64.63
2018-07-27T02:51:34.850Z,65.69
2018-07-27T02:52:34.777Z,65.98
2018-07-27T02:54:27.561Z,64.92
2018-07-27T02:55:27.488Z,64.50
2018-07-27T02:57:20.506Z,64.79
2018-07-27T02:58:20.411Z,64.89
2018-07-27T03:00:13.186Z,64.69
2018-07-27T03:01:13.097Z,65.95
2018-07-27T03:03:05.924Z,64.59
2018-07-27T03:04:05.824Z,64.21
2018-07-27T03:05:58.837Z,64.40
2018-07-27T03:06:58.765Z,64.50
2018-07-27T03:08:51.776Z,64.40
2018-07-27T03:09:51.760Z,64.50
2018-07-27T03:11:44.477Z,64.69
2018-07-27T03:12:44.400Z,64.40
2018-07-27T03:14:37.171Z,64.98
2018-07-27T03:15:37.116Z,64.98
2018-07-27T03:17:29.874Z,64.69
2018-07-27T03:18:29.818Z,65.17
2018-07-27T03:20:22.805Z,65.66
2018-07-27T03:21:22.725Z,65.72
2018-07-27T03:23:16.487Z,65.72
2018-07-27T03:24:16.408Z,65.95
2018-07-27T03:26:09.179Z,66.14
2018-07-27T03:27:09.103Z,65.95
2018-07-27T03:29:02.115Z,66.49
2018-07-27T03:30:02.045Z,66.20
2018-07-27T03:31:55.044Z,67.26
2018-07-27T03:32:54.972Z,68.04
2018-07-27T03:34:47.744Z,68.04
2018-07-27T03:35:47.664Z,68.04
2018-07-27T03:37:40.424Z,67.84
2018-07-27T03:38:40.347Z,67.46
2018-07-27T03:40:33.114Z,67.55
2018-07-27T03:41:33.036Z,66.97
2018-07-27T03:43:25.916Z,66.88
2018-07-27T03:44:25.832Z,67.74
2018-07-27T03:46:18.597Z,67.26
2018-07-27T03:47:18.526Z,67.46
2018-07-27T03:49:11.527Z,67.52
2018-07-27T03:50:11.444Z,67.52
2018-07-27T03:52:04.653Z,67.71
2018-07-27T03:53:04.581Z,67.23
2018-07-27T03:54:57.352Z,67.84
2018-07-27T03:55:57.270Z,68.00
2018-07-27T03:57:50.270Z,67.74
2018-07-27T03:58:50.199Z,67.90
2018-07-27T04:00:42.969Z,68.10
2018-07-27T04:01:42.898Z,68.00
2018-07-27T04:03:35.655Z,67.71
2018-07-27T04:04:35.572Z,68.96
2018-07-27T04:06:28.570Z,67.71
2018-07-27T04:07:28.501Z,68.10
2018-07-27T04:09:21.501Z,68.58
2018-07-27T04:10:21.424Z,69.67
2018-07-27T04:12:14.179Z,68.04
2018-07-27T04:13:14.106Z,68.58
2018-07-27T04:15:07.113Z,68.48
2018-07-27T04:16:07.028Z,68.10
2018-07-27T04:17:59.795Z,68.38
2018-07-27T04:18:59.713Z,67.61
2018-07-27T04:20:52.746Z,68.00
2018-07-27T04:21:52.654Z,68.00
2018-07-27T04:23:45.416Z,67.13
2018-07-27T04:24:45.333Z,68.19
2018-07-27T04:26:38.094Z,68.71
2018-07-27T04:27:38.025Z,68.04
2018-07-27T04:29:31.052Z,68.13
2018-07-27T04:30:30.966Z,68.48
2018-07-27T04:32:23.791Z,68.42
2018-07-27T04:33:23.722Z,68.42
2018-07-27T04:35:16.508Z,68.80
2018-07-27T04:36:16.410Z,67.36
2018-07-27T04:38:09.408Z,67.07
2018-07-27T04:39:09.332Z,67.81
2018-07-27T04:41:02.103Z,67.81
2018-07-27T04:42:02.018Z,68.10
2018-07-27T04:43:54.797Z,68.42
2018-07-27T04:44:54.718Z,68.13
2018-07-27T04:46:47.483Z,68.23
2018-07-27T04:47:47.398Z,68.32
2018-07-27T04:49:40.166Z,68.52
2018-07-27T04:50:40.086Z,68.71
2018-07-27T04:52:33.092Z,68.71
2018-07-27T04:53:33.010Z,68.23
2018-07-27T04:55:26.031Z,67.94
2018-07-27T04:56:25.959Z,67.84
2018-07-27T04:59:37.528Z,66.88
2018-07-27T05:00:37.396Z,66.88
2018-07-27T05:02:30.212Z,66.30
2018-07-27T05:03:30.159Z,67.26
2018-07-27T05:05:23.155Z,66.11
2018-07-27T05:06:23.069Z,65.91
2018-07-27T05:08:16.106Z,65.75
2018-07-27T05:09:16.029Z,65.53
2018-07-27T05:11:08.799Z,64.89
2018-07-27T05:12:08.712Z,64.31
2018-07-27T05:14:01.733Z,64.40
2018-07-27T05:15:01.651Z,63.92
2018-07-27T05:16:54.711Z,63.73
2018-07-27T05:17:54.627Z,63.24
2018-07-27T05:19:47.411Z,62.89
2018-07-27T05:20:47.328Z,62.22
2018-07-27T05:22:40.105Z,62.02
2018-07-27T05:23:40.030Z,61.64
2018-07-27T05:25:33.009Z,61.74
2018-07-27T05:26:32.925Z,61.64
2018-07-27T05:28:25.930Z,61.83
2018-07-27T05:29:25.860Z,62.15
2018-07-27T05:31:18.882Z,62.63
2018-07-27T05:32:18.807Z,62.25
2018-07-27T05:35:30.345Z,61.09
2018-07-27T05:36:30.264Z,61.19
2018-07-27T05:38:23.130Z,61.19
2018-07-27T05:39:23.060Z,60.99
2018-07-27T05:41:15.855Z,61.31
2018-07-27T05:42:15.753Z,61.22
2018-07-27T05:44:08.748Z,60.18
2018-07-27T05:45:08.684Z,59.31
2018-07-27T05:47:01.515Z,59.51
2018-07-27T05:48:01.377Z,59.99
2018-07-27T05:49:54.156Z,58.83
2018-07-27T05:50:54.072Z,59.02
2018-07-27T05:52:47.212Z,58.45
2018-07-27T05:53:47.103Z,58.73
2018-07-27T05:55:39.882Z,58.45
2018-07-27T05:56:39.793Z,58.64
2018-07-27T05:59:51.326Z,58.76
2018-07-27T06:00:51.244Z,57.99
2018-07-27T06:02:44.384Z,57.60
2018-07-27T06:03:44.290Z,57.34
2018-07-27T06:05:37.088Z,56.95
2018-07-27T06:06:36.986Z,56.86
2018-07-27T06:08:30.013Z,55.70
2018-07-27T06:09:29.939Z,56.37
2018-07-27T06:11:22.745Z,56.28
2018-07-27T06:12:22.666Z,56.09
2018-07-27T06:14:15.740Z,55.51
2018-07-27T06:15:15.609Z,56.09
2018-07-27T06:17:08.471Z,56.76
2018-07-27T06:18:08.434Z,56.09
2018-07-27T06:20:01.196Z,56.21
2018-07-27T06:21:01.116Z,55.63
2018-07-27T06:22:53.971Z,55.53
2018-07-27T06:23:53.987Z,54.95
2018-07-27T06:25:46.695Z,55.24
2018-07-27T06:26:46.598Z,55.05
2018-07-27T06:28:39.373Z,54.98
2018-07-27T06:29:39.297Z,54.88
2018-07-27T06:31:32.196Z,55.56
2018-07-27T06:32:32.002Z,54.30
2018-07-27T06:34:24.869Z,55.07
2018-07-27T06:35:24.795Z,53.33
2018-07-27T06:37:17.589Z,53.65
2018-07-27T06:38:17.496Z,53.07
2018-07-27T06:40:10.504Z,52.49
2018-07-27T06:41:10.421Z,52.58
2018-07-27T06:43:03.187Z,52.78
2018-07-27T06:44:03.112Z,52.58
2018-07-27T06:45:56.200Z,52.61
2018-07-27T06:46:56.127Z,53.00
2018-07-27T06:48:48.919Z,52.90
2018-07-27T06:49:48.822Z,52.42
2018-07-27T06:51:41.605Z,52.73
2018-07-27T06:52:41.521Z,51.96
2018-07-27T06:54:34.546Z,52.06
2018-07-27T06:55:34.476Z,52.06
2018-07-27T06:57:27.495Z,50.79
2018-07-27T06:58:27.413Z,51.67
2018-07-27T07:00:20.437Z,51.47
2018-07-27T07:01:20.356Z,50.99
2018-07-27T07:03:13.123Z,51.40
2018-07-27T07:04:13.054Z,50.53
2018-07-27T07:06:05.831Z,50.43
2018-07-27T07:07:05.786Z,50.34
2018-07-27T07:08:58.786Z,49.68
2018-07-27T07:09:58.703Z,49.77
2018-07-27T07:11:51.475Z,49.68
2018-07-27T07:12:51.395Z,48.73
2018-07-27T07:14:44.703Z,48.32
2018-07-27T07:15:44.637Z,48.73
2018-07-27T07:17:37.418Z,49.02
2018-07-27T07:18:37.334Z,48.54
2018-07-27T07:20:30.384Z,49.41
2018-07-27T07:21:30.296Z,49.12
2018-07-27T07:23:23.064Z,48.66
2018-07-27T07:24:22.991Z,49.24
2018-07-27T07:26:16.015Z,49.15
2018-07-27T07:27:15.949Z,48.75
2018-07-27T07:29:08.960Z,48.66
2018-07-27T07:30:08.887Z,48.49
2018-07-27T07:32:01.673Z,48.10
2018-07-27T07:33:01.614Z,47.81
2018-07-27T07:34:54.612Z,47.61
2018-07-27T07:35:54.545Z,46.74
2018-07-27T07:37:47.337Z,46.64
2018-07-27T07:38:47.248Z,46.84
2018-07-27T07:40:40.023Z,46.57
2018-07-27T07:41:39.977Z,46.96
2018-07-27T07:43:32.728Z,46.69
2018-07-27T07:44:32.653Z,46.30
2018-07-27T07:46:25.669Z,45.52
2018-07-27T07:47:25.589Z,46.01
2018-07-27T07:49:18.623Z,45.74
2018-07-27T07:50:18.521Z,45.04
2018-07-27T07:52:11.304Z,45.35
2018-07-27T07:53:11.230Z,44.57
2018-07-27T07:55:03.998Z,44.76
2018-07-27T07:56:03.925Z,44.67
2018-07-27T07:57:56.939Z,44.48
2018-07-27T07:58:56.866Z,45.94
2018-07-27T08:00:49.644Z,44.30
2018-07-27T08:01:49.567Z,44.89
2018-07-27T08:03:42.899Z,43.04
2018-07-27T08:04:42.827Z,43.35
2018-07-27T08:06:35.604Z,42.86
2018-07-27T08:07:35.520Z,42.49
2018-07-27T08:09:28.441Z,42.66
2018-07-27T08:10:28.374Z,42.28
2018-07-27T08:12:21.163Z,42.28
2018-07-27T08:13:21.103Z,42.66
2018-07-27T08:15:14.112Z,42.40
2018-07-27T08:16:14.044Z,42.00
2018-07-27T08:18:06.818Z,42.20
2018-07-27T08:19:06.743Z,42.40
2018-07-27T08:20:59.751Z,42.51
2018-07-27T08:21:59.684Z,41.35
2018-07-27T08:23:52.460Z,42.32
2018-07-27T08:24:52.385Z,40.95
2018-07-27T08:26:45.694Z,41.35
2018-07-27T08:27:45.617Z,41.25
2018-07-27T08:29:38.393Z,40.78
2018-07-27T08:30:38.326Z,41.07
2018-07-27T08:32:31.177Z,39.80
2018-07-27T08:33:31.098Z,39.70
2018-07-27T08:35:23.867Z,40.48
2018-07-27T08:36:23.801Z,39.82
2018-07-27T08:38:16.583Z,39.23
2018-07-27T08:39:16.508Z,39.04
2018-07-27T08:41:09.530Z,39.26
2018-07-27T08:42:09.458Z,38.96
2018-07-27T08:44:02.239Z,38.87
2018-07-27T08:45:02.159Z,38.96
2018-07-27T08:46:55.377Z,38.18
2018-07-27T08:47:55.306Z,38.30
2018-07-27T08:49:48.103Z,37.79
2018-07-27T08:50:48.024Z,37.99
2018-07-27T08:52:40.818Z,38.20
2018-07-27T08:53:40.740Z,37.81
2018-07-27T08:55:33.759Z,37.12
2018-07-27T08:56:33.690Z,36.93
2018-07-27T08:58:26.717Z,36.75
2018-07-27T08:59:26.639Z,36.85
2018-07-27T09:01:19.411Z,36.46
2018-07-27T09:02:19.347Z,35.79
2018-07-27T09:04:12.382Z,35.21
2018-07-27T09:05:12.305Z,35.69
2018-07-27T09:07:05.087Z,35.32
2018-07-27T09:08:05.019Z,35.32
2018-07-27T09:09:57.833Z,34.54
2018-07-27T09:10:57.732Z,35.04
2018-07-27T09:12:50.835Z,33.58
2018-07-27T09:13:50.756Z,33.67
2018-07-27T09:15:43.542Z,33.48
2018-07-27T09:16:43.480Z,34.05
2018-07-27T09:18:36.268Z,33.97
2018-07-27T09:19:36.190Z,33.00
2018-07-27T09:21:29.208Z,31.24
2018-07-27T09:22:29.147Z,30.37
2018-07-27T09:24:22.068Z,30.00
2018-07-27T09:25:22.136Z,29.43
2018-07-27T09:27:14.886Z,28.86
2018-07-27T09:28:14.823Z,28.19
2018-07-27T09:30:07.876Z,28.68
2018-07-27T09:31:07.807Z,28.40
2018-07-27T09:33:00.794Z,27.25
2018-07-27T09:34:00.722Z,27.64
2018-07-27T09:35:53.505Z,26.30
2018-07-27T09:36:53.446Z,26.30
2018-07-27T09:38:46.483Z,25.92
2018-07-27T09:39:46.415Z,25.65
2018-07-27T09:41:39.208Z,25.86
2018-07-27T09:42:39.151Z,25.26
2018-07-27T09:44:32.240Z,25.56
2018-07-27T09:45:32.174Z,24.98
2018-07-27T09:47:25.047Z,24.32
2018-07-27T09:48:24.974Z,23.25
2018-07-27T09:50:17.775Z,23.35
2018-07-27T09:51:17.714Z,22.17
2018-07-27T09:53:10.780Z,21.40
2018-07-27T09:54:10.735Z,21.70
2018-07-27T09:56:03.830Z,20.81
2018-07-27T09:57:03.757Z,21.20
2018-07-27T09:58:56.568Z,22.38
2018-07-27T09:59:56.498Z,21.20
2018-07-27T10:01:49.553Z,20.14
2018-07-27T10:02:49.499Z,20.54
2018-07-27T10:04:42.926Z,20.73
2018-07-27T10:05:42.927Z,20.92
2018-07-27T10:07:35.708Z,20.92
2018-07-27T10:08:35.649Z,21.03
2018-07-27T10:10:28.473Z,20.70
2018-07-27T10:11:28.404Z,20.14
2018-07-27T10:13:21.262Z,19.56
2018-07-27T10:14:21.152Z,19.46
2018-07-27T10:16:14.202Z,19.18
2018-07-27T10:17:14.137Z,18.60
2018-07-27T10:19:06.948Z,19.07
2018-07-27T10:20:06.882Z,19.65
2018-07-27T10:21:59.924Z,19.09
2018-07-27T10:22:59.876Z,19.10
2018-07-27T10:24:52.685Z,18.71
2018-07-27T10:25:52.624Z,17.63
2018-07-27T10:27:45.685Z,19.60
2018-07-27T10:28:45.631Z,19.44
2018-07-27T10:30:38.457Z,18.84
2018-07-27T10:31:38.388Z,20.30
2018-07-27T10:33:31.266Z,20.10
2018-07-27T10:34:31.212Z,20.31
2018-07-27T10:36:24.263Z,19.26
2018-07-27T10:37:24.196Z,19.60
2018-07-27T10:39:17.047Z,20.95
2018-07-27T10:40:16.969Z,21.34
2018-07-27T10:42:09.779Z,21.83
2018-07-27T10:43:09.725Z,21.06
2018-07-27T10:45:02.779Z,19.50
2018-07-27T10:46:02.709Z,19.70
2018-07-27T10:47:55.527Z,19.30
2018-07-27T10:48:55.469Z,19.89
2018-07-27T10:50:48.507Z,19.60
2018-07-27T10:51:48.443Z,19.50
2018-07-27T10:53:41.243Z,19.89
2018-07-27T10:54:41.189Z,19.67
2018-07-27T10:56:34.257Z,21.22
2018-07-27T10:57:34.191Z,21.81
2018-07-27T10:59:27.218Z,21.89
2018-07-27T11:00:27.157Z,21.78
2018-07-27T11:02:19.967Z,23.66
2018-07-27T11:03:19.890Z,22.30
2018-07-27T11:05:12.924Z,22.30
2018-07-27T11:06:12.851Z,23.26
2018-07-27T11:08:05.649Z,22.56
2018-07-27T11:09:05.579Z,22.16
2018-07-27T11:10:58.633Z,23.05
2018-07-27T11:11:58.559Z,22.56
2018-07-27T11:13:51.350Z,21.98
2018-07-27T11:14:51.281Z,21.78
2018-07-27T11:16:44.630Z,22.56
2018-07-27T11:17:44.581Z,24.23
2018-07-27T11:19:37.387Z,23.53
2018-07-27T11:20:37.280Z,24.01
2018-07-27T11:22:30.360Z,23.62
2018-07-27T11:23:30.292Z,23.72
2018-07-27T11:25:23.325Z,23.91
2018-07-27T11:26:23.253Z,23.41
2018-07-27T11:28:16.059Z,23.62
2018-07-27T11:29:15.996Z,23.63
2018-07-27T11:31:09.027Z,24.41
2018-07-27T11:32:08.954Z,24.12
2018-07-27T11:34:01.978Z,23.25
2018-07-27T11:35:01.919Z,23.44
2018-07-27T11:36:54.725Z,22.34
2018-07-27T11:37:54.650Z,23.03
2018-07-27T11:39:47.986Z,23.41
2018-07-27T11:40:47.921Z,23.62
2018-07-27T11:42:40.737Z,23.53
2018-07-27T11:43:40.648Z,22.25
2018-07-27T11:45:33.709Z,23.25
2018-07-27T11:46:33.653Z,21.94
2018-07-27T11:48:26.670Z,22.44
2018-07-27T11:49:26.600Z,23.11
2018-07-27T11:51:19.395Z,23.11
2018-07-27T11:52:19.322Z,23.72
2018-07-27T11:54:12.338Z,22.63
2018-07-27T11:55:12.278Z,22.42
2018-07-27T11:57:05.075Z,23.13
2018-07-27T11:58:05.005Z,23.21
2018-07-27T11:59:57.794Z,21.94
2018-07-27T12:00:57.732Z,22.62
2018-07-27T12:02:50.645Z,22.31
2018-07-27T12:03:50.570Z,22.41
2018-07-27T12:05:43.979Z,22.33
2018-07-27T12:06:43.922Z,22.13
2018-07-27T12:08:36.714Z,23.13
2018-07-27T12:09:36.637Z,22.55
2018-07-27T12:11:29.428Z,22.55
2018-07-27T12:12:29.351Z,22.25
2018-07-27T12:14:22.513Z,22.24
2018-07-27T12:15:22.309Z,22.45
2018-07-27T12:17:15.120Z,21.84
2018-07-27T12:18:15.043Z,22.34
2018-07-27T12:20:07.833Z,22.71
2018-07-27T12:21:07.831Z,22.02
2018-07-27T12:23:00.809Z,23.10
2018-07-27T12:24:00.723Z,22.42
2018-07-27T12:25:53.506Z,21.65
2018-07-27T12:26:53.451Z,22.63
2018-07-27T12:28:46.242Z,22.62
2018-07-27T12:29:46.172Z,23.41
2018-07-27T12:31:38.967Z,22.31
2018-07-27T12:32:38.929Z,21.91
2018-07-27T12:34:31.954Z,22.60
2018-07-27T12:35:31.885Z,23.19
2018-07-27T12:37:24.674Z,22.81
2018-07-27T12:38:24.604Z,23.10
2018-07-27T12:40:17.626Z,23.51
2018-07-27T12:41:17.565Z,22.82
2018-07-27T12:43:10.359Z,22.52
2018-07-27T12:44:10.287Z,21.84
2018-07-27T12:46:03.317Z,21.73
2018-07-27T12:47:03.240Z,21.64
2018-07-27T12:48:56.054Z,21.64
2018-07-27T12:49:55.964Z,21.73
2018-07-27T12:51:49.369Z,20.75
2018-07-27T12:52:48.951Z,21.33
2018-07-27T12:54:41.755Z,21.04
2018-07-27T12:55:41.681Z,21.33
2018-07-27T12:57:34.720Z,21.15
2018-07-27T12:58:34.641Z,20.75
2018-07-27T13:00:27.668Z,21.23
2018-07-27T13:01:27.608Z,21.33
2018-07-27T13:03:20.402Z,21.73
2018-07-27T13:04:20.320Z,21.33
2018-07-27T13:06:13.331Z,21.83
2018-07-27T13:07:13.271Z,21.73
2018-07-27T13:09:06.056Z,21.15
2018-07-27T13:10:05.977Z,21.84
2018-07-27T13:11:59.041Z,21.15
2018-07-27T13:12:58.972Z,20.65
2018-07-27T13:14:51.765Z,21.05
2018-07-27T13:15:51.697Z,20.75
2018-07-27T13:17:44.720Z,20.75
2018-07-27T13:18:44.642Z,21.04
2018-07-27T13:20:37.425Z,21.14
2018-07-27T13:21:37.358Z,21.25
2018-07-27T13:23:30.138Z,20.65
2018-07-27T13:27:23.031Z,21.14
2018-07-27T13:29:15.822Z,21.23
2018-07-27T13:30:15.746Z,21.23
2018-07-27T13:33:08.527Z,20.94
2018-07-27T13:35:01.320Z,21.53
2018-07-27T13:37:54.271Z,20.85
2018-07-27T13:38:54.187Z,21.73
2018-07-27T13:40:46.976Z,20.95
2018-07-27T13:41:46.911Z,21.05
2018-07-27T13:43:39.750Z,21.05
2018-07-27T13:44:39.637Z,21.84
2018-07-27T13:46:32.691Z,21.34
2018-07-27T13:47:32.587Z,20.95
2018-07-27T13:49:25.604Z,22.24
2018-07-27T13:50:25.545Z,21.76
2018-07-27T13:52:18.319Z,21.68
2018-07-27T13:53:18.244Z,19.42
2018-07-27T13:55:11.158Z,19.02
2018-07-27T13:56:11.087Z,19.10
2018-07-27T13:58:03.872Z,20.39
2018-07-27T13:59:03.798Z,19.61
2018-07-27T14:00:56.888Z,19.23
2018-07-27T14:01:56.827Z,19.34
2018-07-27T14:03:50.206Z,19.05
2018-07-27T14:04:50.134Z,19.23
2018-07-27T14:06:42.929Z,18.83
2018-07-27T14:07:42.870Z,19.43
2018-07-27T14:09:35.887Z,19.05
2018-07-27T14:10:35.816Z,18.77
2018-07-27T14:12:28.842Z,17.52
2018-07-27T14:13:28.783Z,16.74
2018-07-27T14:15:21.575Z,16.25
2018-07-27T14:16:21.513Z,16.64
2018-07-27T14:18:14.534Z,16.35
2018-07-27T14:19:14.466Z,15.86
2018-07-27T14:21:07.264Z,15.18
2018-07-27T14:22:07.231Z,15.79
2018-07-27T14:24:00.249Z,13.92
2018-07-27T14:25:00.193Z,14.90
2018-07-27T14:26:52.976Z,16.00
2018-07-27T14:27:52.930Z,14.22
2018-07-27T14:29:45.965Z,13.71
2018-07-27T14:30:45.895Z,13.82
2018-07-27T14:32:38.709Z,13.62
2018-07-27T14:33:38.648Z,13.82
2018-07-27T14:35:31.465Z,12.84
2018-07-27T14:36:31.397Z,13.15
2018-07-27T14:38:24.230Z,12.25
2018-07-27T14:39:24.165Z,13.54
2018-07-27T14:41:16.962Z,13.34
2018-07-27T14:42:16.914Z,13.34
2018-07-27T14:44:09.993Z,12.48
2018-07-27T14:45:10.004Z,11.50
2018-07-27T14:47:02.725Z,11.90
2018-07-27T14:48:02.664Z,11.20
2018-07-27T14:49:55.781Z,11.31
2018-07-27T14:50:55.694Z,10.52
2018-07-27T14:52:48.643Z,10.61
2018-07-27T14:53:48.478Z,10.61
2018-07-27T14:55:41.292Z,10.92
2018-07-27T14:56:41.318Z,11.41
2018-07-27T14:58:34.048Z,11.51
2018-07-27T14:59:33.982Z,11.41
2018-07-27T15:01:27.040Z,10.11
2018-07-27T15:02:26.977Z,10.92
2018-07-27T15:04:19.798Z,10.63
2018-07-27T15:05:19.757Z,10.33
2018-07-27T15:07:12.785Z,10.00
2018-07-27T15:08:12.736Z,10.41
2018-07-27T15:10:05.568Z,11.29
2018-07-27T15:11:05.505Z,10.99
2018-07-27T15:12:58.551Z,10.58
2018-07-27T15:13:58.491Z,11.27
2018-07-27T15:15:51.337Z,10.68
2018-07-27T15:16:51.283Z,10.77
2018-07-27T15:18:44.642Z,10.69
2018-07-27T15:19:44.587Z,10.69
2018-07-27T15:21:37.410Z,10.02
2018-07-27T15:22:37.343Z,10.02
2018-07-27T15:24:30.486Z,11.18
2018-07-27T15:25:30.332Z,11.68
2018-07-27T15:27:23.410Z,10.89
2018-07-27T15:28:23.353Z,11.41
2018-07-27T15:30:16.214Z,10.64
2018-07-27T15:31:16.162Z,9.72
2018-07-27T15:33:09.206Z,9.81
2018-07-27T15:34:09.145Z,8.71
2018-07-27T15:36:01.976Z,9.91
2018-07-27T15:37:01.913Z,8.91
2018-07-27T15:38:54.720Z,10.46
2018-07-27T15:39:54.662Z,11.82
2018-07-27T15:41:47.724Z,12.92
2018-07-27T15:42:47.688Z,12.95
2018-07-27T15:44:40.492Z,11.48
2018-07-27T15:45:40.413Z,10.80
2018-07-27T15:47:33.212Z,10.99
2018-07-27T15:48:33.247Z,12.08
2018-07-27T15:50:26.227Z,11.40
2018-07-27T15:51:26.148Z,10.99
2018-07-27T15:53:18.961Z,10.50
2018-07-27T15:54:18.904Z,11.08
2018-07-27T15:56:12.309Z,11.48
2018-07-27T15:57:11.908Z,11.19
2018-07-27T15:59:04.704Z,10.49
2018-07-27T16:00:04.647Z,10.47
2018-07-27T16:01:57.693Z,10.69
2018-07-27T16:02:57.628Z,11.19
2018-07-27T16:04:50.430Z,10.39
2018-07-27T16:05:50.370Z,9.89
2018-07-27T16:07:43.748Z,10.51
2018-07-27T16:08:43.681Z,10.13
2018-07-27T16:10:36.645Z,9.61
2018-07-27T16:11:36.581Z,10.49
2018-07-27T16:13:29.384Z,10.78
2018-07-27T16:14:29.348Z,10.88
2018-07-27T16:16:22.392Z,11.36
2018-07-27T16:17:22.339Z,12.14
2018-07-27T16:19:15.138Z,11.36
2018-07-27T16:20:15.070Z,11.26
2018-07-27T16:22:08.001Z,11.95
2018-07-27T16:23:07.951Z,11.76
2018-07-27T16:25:00.756Z,11.49
2018-07-27T16:26:00.692Z,11.19
2018-07-27T16:27:53.742Z,11.10
2018-07-27T16:28:53.675Z,11.20
2018-07-27T16:30:46.490Z,11.10
2018-07-27T16:31:46.446Z,11.20
2018-07-27T16:33:39.218Z,11.40
2018-07-27T16:34:39.160Z,10.31
2018-07-27T16:36:32.209Z,10.78
2018-07-27T16:37:32.146Z,11.08
2018-07-27T16:39:25.186Z,11.29
2018-07-27T16:40:25.131Z,11.39
2018-07-27T16:42:17.940Z,11.47
2018-07-27T16:43:17.878Z,12.45
2018-07-27T16:45:10.938Z,13.60
2018-07-27T16:46:10.866Z,14.18
2018-07-27T16:48:03.671Z,15.37
2018-07-27T16:49:03.600Z,14.87
2018-07-27T16:50:56.667Z,15.84
2018-07-27T16:51:56.602Z,16.13
2018-07-27T16:53:49.398Z,16.13
2018-07-27T16:54:49.336Z,16.31
2018-07-27T16:56:42.221Z,17.40
2018-07-27T16:57:42.151Z,17.10
2018-07-27T16:59:35.185Z,17.30
2018-07-27T17:00:35.140Z,17.79
2018-07-27T17:02:27.934Z,16.80
2018-07-27T17:03:27.857Z,17.79
2018-07-27T17:05:20.895Z,17.89
2018-07-27T17:06:20.850Z,17.29
2018-07-27T17:08:13.627Z,17.49
2018-07-27T17:09:13.606Z,17.88
2018-07-27T17:11:06.618Z,17.47
2018-07-27T17:12:06.583Z,16.58
2018-07-27T17:13:59.365Z,17.27
2018-07-27T17:14:59.267Z,17.55
2018-07-27T17:16:52.301Z,18.82
2018-07-27T17:17:52.230Z,19.03
2018-07-27T17:19:45.023Z,18.82
2018-07-27T17:20:44.955Z,19.40
2018-07-27T17:22:37.750Z,19.60
2018-07-27T17:23:37.676Z,19.30
2018-07-27T17:25:30.716Z,20.39
2018-07-27T17:26:30.640Z,19.69
2018-07-27T17:28:23.691Z,19.70
2018-07-27T17:29:23.608Z,19.00
2018-07-27T17:31:16.386Z,19.49
2018-07-27T17:32:16.325Z,19.30
2018-07-27T17:34:09.429Z,19.59
2018-07-27T17:35:09.347Z,19.49
2018-07-27T17:37:02.176Z,20.09
2018-07-27T17:38:02.070Z,20.67
2018-07-27T17:39:55.105Z,20.97
2018-07-27T17:40:55.042Z,20.78
2018-07-27T17:42:47.893Z,20.78
2018-07-27T17:43:47.759Z,20.67
2018-07-27T17:45:40.563Z,21.07
2018-07-27T17:46:40.498Z,20.87
2018-07-27T17:48:33.531Z,19.98
2018-07-27T17:49:33.470Z,20.37
2018-07-27T17:51:26.475Z,20.76
2018-07-27T17:52:26.410Z,20.76
2018-07-27T17:54:19.442Z,20.96
2018-07-27T17:55:19.365Z,21.05
2018-07-27T17:57:12.150Z,21.54
2018-07-27T17:58:12.080Z,21.34
2018-07-27T18:00:04.932Z,21.34
2018-07-27T18:01:04.858Z,21.05
2018-07-27T18:02:57.673Z,21.34
2018-07-27T18:03:57.606Z,21.54
2018-07-27T18:05:50.734Z,21.44
2018-07-27T18:06:50.667Z,21.44
2018-07-27T18:08:43.469Z,21.44
2018-07-27T18:09:43.398Z,21.92
2018-07-27T18:11:36.334Z,21.43
2018-07-27T18:12:36.267Z,22.02
2018-07-27T18:14:29.081Z,21.91
2018-07-27T18:15:29.008Z,22.41
2018-07-27T18:17:21.808Z,22.31
2018-07-27T18:18:21.725Z,22.80
2018-07-27T18:20:14.804Z,23.19
2018-07-27T18:21:14.742Z,23.29
2018-07-27T18:23:08.518Z,23.49
2018-07-27T18:24:08.458Z,23.78
2018-07-27T18:26:01.501Z,22.98
2018-07-27T18:27:01.433Z,23.47
2018-07-27T18:28:54.495Z,23.67
2018-07-27T18:29:54.416Z,23.47
2018-07-27T18:31:47.206Z,23.77
2018-07-27T18:32:47.142Z,23.96
2018-07-27T18:34:39.936Z,24.26
2018-07-27T18:35:39.859Z,23.95
2018-07-27T18:37:32.944Z,24.44
2018-07-27T18:38:32.857Z,24.35
2018-07-27T18:40:25.966Z,24.35
2018-07-27T18:41:25.911Z,24.25
2018-07-27T18:43:18.976Z,24.33